createdAt,value
2023-05-12T00:00:48.552Z,98299.00
2023-05-12T00:03:15.261Z,98303.00
2023-05-12T00:05:41.944Z,98298.00
2023-05-12T00:08:08.529Z,98294.00
2023-05-12T00:10:35.568Z,98292.00
2023-05-12T00:13:02.660Z,98301.00
2023-05-12T00:15:29.201Z,98302.00
2023-05-12T00:17:55.837Z,98303.00
2023-05-12T00:20:22.578Z,98305.00
2023-05-12T00:22:49.194Z,98290.00
2023-05-12T00:25:15.834Z,98295.00
2023-05-12T00:27:42.381Z,98296.00
2023-05-12T00:30:09.957Z,98290.00
2023-05-12T00:32:36.516Z,98292.00
2023-05-12T00:35:03.143Z,98288.00
2023-05-12T00:37:29.642Z,98299.00
2023-05-12T00:39:56.265Z,98296.00
2023-05-12T00:42:23.027Z,98293.00
2023-05-12T00:44:50.372Z,98289.00
2023-05-12T00:47:16.910Z,98285.00
2023-05-12T00:49:43.661Z,98288.00
2023-05-12T00:52:10.242Z,98284.00
2023-05-12T00:54:39.818Z,98281.00
2023-05-12T00:57:06.659Z,98278.00
2023-05-12T00:59:34.024Z,98274.00
2023-05-12T01:02:00.807Z,98269.00
2023-05-12T01:04:29.450Z,98279.00
2023-05-12T01:07:17.973Z,98270.00
2023-05-12T01:09:46.181Z,98273.00
2023-05-12T01:12:12.715Z,98269.00
2023-05-12T01:14:40.287Z,98266.00
2023-05-12T01:17:15.198Z,98264.00
2023-05-12T01:19:49.125Z,98270.00
2023-05-12T01:22:16.886Z,98266.00
2023-05-12T01:24:56.971Z,98261.00
2023-05-12T01:27:27.373Z,98265.00
2023-05-12T01:30:00.987Z,98261.00
2023-05-12T01:32:30.401Z,98261.00
2023-05-12T01:34:57.664Z,98254.00
2023-05-12T01:37:28.251Z,98266.00
2023-05-12T01:39:54.855Z,98262.00
2023-05-12T01:42:21.622Z,98259.00
2023-05-12T01:44:49.020Z,98261.00
2023-05-12T01:47:16.005Z,98260.00
2023-05-12T01:49:48.453Z,98257.00
2023-05-12T01:52:16.174Z,98260.00
2023-05-12T01:54:42.624Z,98264.00
2023-05-12T01:57:10.167Z,98258.00
2023-05-12T01:59:38.302Z,98261.00
2023-05-12T02:02:06.375Z,98263.00
2023-05-12T02:04:34.511Z,98256.00
2023-05-12T02:07:01.889Z,98263.00
2023-05-12T02:09:28.857Z,98263.00
2023-05-12T02:12:00.650Z,98265.00
2023-05-12T02:14:27.109Z,98264.00
2023-05-12T02:16:55.403Z,98269.00
2023-05-12T02:19:23.887Z,98265.00
2023-05-12T02:21:50.408Z,98259.00
2023-05-12T02:24:16.987Z,98257.00
2023-05-12T02:26:44.297Z,98256.00
2023-05-12T02:29:12.563Z,98257.00
2023-05-12T02:31:39.209Z,98255.00
2023-05-12T02:34:15.157Z,98256.00
2023-05-12T02:36:41.710Z,98263.00
2023-05-12T02:39:08.505Z,98250.00
2023-05-12T02:41:35.547Z,98262.00
2023-05-12T02:44:02.166Z,98258.00
2023-05-12T02:46:28.665Z,98263.00
2023-05-12T02:48:55.722Z,98257.00
2023-05-12T02:51:22.274Z,98256.00
2023-05-12T02:53:48.920Z,98248.00
2023-05-12T02:56:17.124Z,98252.00
2023-05-12T02:58:43.585Z,98260.00
2023-05-12T03:01:11.536Z,98249.00
2023-05-12T03:03:40.168Z,98254.00
2023-05-12T03:06:07.566Z,98253.00
2023-05-12T03:08:34.834Z,98250.00
2023-05-12T03:11:01.915Z,98256.00
2023-05-12T03:13:28.836Z,98255.00
2023-05-12T03:15:55.695Z,98255.00
2023-05-12T03:18:22.327Z,98254.00
2023-05-12T03:20:50.132Z,98260.00
2023-05-12T03:23:17.003Z,98257.00
2023-05-12T03:25:43.879Z,98261.00
2023-05-12T03:28:10.608Z,98257.00
2023-05-12T03:30:37.117Z,98253.00
2023-05-12T03:33:03.920Z,98257.00
2023-05-12T03:35:31.249Z,98251.00
2023-05-12T03:38:01.752Z,98255.00
2023-05-12T03:40:28.724Z,98250.00
2023-05-12T03:42:55.188Z,98250.00
2023-05-12T03:45:21.867Z,98252.00
2023-05-12T03:47:48.674Z,98250.00
2023-05-12T03:50:15.555Z,98251.00
2023-05-12T03:52:42.100Z,98262.00
2023-05-12T03:55:09.132Z,98244.00
2023-05-12T03:57:37.691Z,98255.00
2023-05-12T04:00:05.756Z,98244.00
2023-05-12T04:02:39.349Z,98244.00
2023-05-12T04:05:08.572Z,98249.00
2023-05-12T04:07:35.084Z,98240.00
2023-05-12T04:10:02.013Z,98245.00
2023-05-12T04:12:28.950Z,98242.00
2023-05-12T04:14:55.799Z,98244.00
2023-05-12T04:17:22.867Z,98244.00
2023-05-12T04:19:49.420Z,98243.00
2023-05-12T04:22:15.868Z,98245.00
2023-05-12T04:24:42.367Z,98250.00
2023-05-12T04:27:08.866Z,98241.00
2023-05-12T04:29:35.535Z,98245.00
2023-05-12T04:32:02.041Z,98249.00
2023-05-12T04:34:28.598Z,98255.00
2023-05-12T04:36:55.328Z,98253.00
2023-05-12T04:39:21.809Z,98250.00
2023-05-12T04:41:48.582Z,98249.00
2023-05-12T04:44:15.593Z,98258.00
2023-05-12T04:46:43.253Z,98253.00
2023-05-12T04:49:09.992Z,98257.00
2023-05-12T04:51:42.112Z,98247.00
2023-05-12T04:54:11.912Z,98256.00
2023-05-12T04:56:38.658Z,98260.00
2023-05-12T04:59:06.573Z,98260.00
2023-05-12T05:01:33.220Z,98265.00
2023-05-12T05:03:59.927Z,98263.00
2023-05-12T05:06:26.502Z,98270.00
2023-05-12T05:08:53.180Z,98267.00
2023-05-12T05:11:19.791Z,98270.00
2023-05-12T05:13:46.238Z,98274.00
2023-05-12T05:16:12.686Z,98284.00
2023-05-12T05:18:44.123Z,98279.00
2023-05-12T05:21:10.833Z,98281.00
2023-05-12T05:23:37.458Z,98271.00
2023-05-12T05:26:06.042Z,98283.00
2023-05-12T05:28:32.510Z,98279.00
2023-05-12T05:31:00.165Z,98275.00
2023-05-12T05:33:27.389Z,98286.00
2023-05-12T05:35:53.953Z,98281.00
2023-05-12T05:38:20.934Z,98287.00
2023-05-12T05:40:53.852Z,98285.00
2023-05-12T05:43:22.892Z,98291.00
2023-05-12T05:45:50.405Z,98292.00
2023-05-12T05:48:18.370Z,98292.00
2023-05-12T05:50:46.598Z,98291.00
2023-05-12T05:53:13.281Z,98290.00
2023-05-12T05:55:40.803Z,98294.00
2023-05-12T05:58:07.639Z,98301.00
2023-05-12T06:00:34.142Z,98298.00
2023-05-12T06:03:01.257Z,98297.00
2023-05-12T06:05:27.927Z,98307.00
2023-05-12T06:07:55.100Z,98300.00
2023-05-12T06:10:21.912Z,98305.00
2023-05-12T06:12:48.679Z,98311.00
2023-05-12T06:15:15.218Z,98317.00
2023-05-12T06:17:41.982Z,98323.00
2023-05-12T06:20:08.901Z,98320.00
2023-05-12T06:22:35.515Z,98328.00
2023-05-12T06:25:02.574Z,98327.00
2023-05-12T06:27:29.442Z,98331.00
2023-05-12T06:29:55.964Z,98331.00
2023-05-12T06:32:22.497Z,98329.00
2023-05-12T06:34:49.130Z,98335.00
2023-05-12T06:37:15.841Z,98338.00
2023-05-12T06:39:42.308Z,98339.00
2023-05-12T06:42:08.842Z,98343.00
2023-05-12T06:44:42.628Z,98334.00
2023-05-12T06:47:09.362Z,98331.00
2023-05-12T06:49:37.125Z,98340.00
2023-05-12T06:52:05.034Z,98338.00
2023-05-12T06:54:31.666Z,98337.00
2023-05-12T06:56:58.530Z,98339.00
2023-05-12T06:59:25.191Z,98337.00
2023-05-12T07:01:51.816Z,98339.00
2023-05-12T07:04:18.347Z,98331.00
2023-05-12T07:06:44.856Z,98336.00
2023-05-12T07:09:11.419Z,98335.00
2023-05-12T07:11:38.051Z,98338.00
2023-05-12T07:14:04.681Z,98326.00
2023-05-12T07:16:32.376Z,98333.00
2023-05-12T07:18:58.945Z,98338.00
2023-05-12T07:21:25.526Z,98329.00
2023-05-12T07:23:52.155Z,98339.00
2023-05-12T07:26:18.654Z,98341.00
2023-05-12T07:28:45.189Z,98341.00
2023-05-12T07:31:11.787Z,98340.00
2023-05-12T07:33:38.301Z,98341.00
2023-05-12T07:36:04.898Z,98350.00
2023-05-12T07:38:32.116Z,98343.00
2023-05-12T07:40:59.633Z,98350.00
2023-05-12T07:43:26.689Z,98344.00
2023-05-12T07:45:54.611Z,98339.00
2023-05-12T07:48:21.089Z,98344.00
2023-05-12T07:50:47.607Z,98340.00
2023-05-12T07:53:14.194Z,98342.00
2023-05-12T07:55:41.226Z,98338.00
2023-05-12T07:58:07.675Z,98345.00
2023-05-12T08:00:34.358Z,98346.00
2023-05-12T08:03:00.980Z,98346.00
2023-05-12T08:05:27.687Z,98347.00
2023-05-12T08:07:54.203Z,98356.00
2023-05-12T08:10:20.734Z,98351.00
2023-05-12T08:12:50.018Z,98350.00
2023-05-12T08:15:16.522Z,98356.00
2023-05-12T08:17:43.021Z,98351.00
2023-05-12T08:20:10.749Z,98357.00
2023-05-12T08:22:37.338Z,98360.00
2023-05-12T08:25:04.879Z,98361.00
2023-05-12T08:27:31.428Z,98364.00
2023-05-12T08:29:58.559Z,98358.00
2023-05-12T08:32:25.075Z,98354.00
2023-05-12T08:34:51.625Z,98354.00
2023-05-12T08:37:18.201Z,98357.00
2023-05-12T08:39:45.538Z,98361.00
2023-05-12T08:42:36.688Z,98362.00
2023-05-12T08:45:04.170Z,98367.00
2023-05-12T08:47:33.509Z,98358.00
2023-05-12T08:50:04.987Z,98356.00
2023-05-12T08:52:36.074Z,98369.00
2023-05-12T08:55:04.309Z,98369.00
2023-05-12T08:57:31.436Z,98360.00
2023-05-12T09:00:01.304Z,98363.00
2023-05-12T09:02:41.030Z,98366.00
2023-05-12T09:05:11.787Z,98363.00
2023-05-12T09:07:43.647Z,98366.00
2023-05-12T09:10:33.505Z,98361.00
2023-05-12T09:13:20.177Z,98370.00
2023-05-12T09:15:47.912Z,98370.00
2023-05-12T09:18:14.502Z,98371.00
2023-05-12T09:20:41.000Z,98371.00
2023-05-12T09:23:22.186Z,98371.00
2023-05-12T09:26:00.979Z,98371.00
2023-05-12T09:28:39.692Z,98379.00
2023-05-12T09:31:20.571Z,98377.00
2023-05-12T09:33:47.254Z,98368.00
2023-05-12T09:36:21.638Z,98372.00
2023-05-12T09:39:00.510Z,98370.00
2023-05-12T09:41:26.973Z,98378.00
2023-05-12T09:43:53.661Z,98373.00
2023-05-12T09:46:20.262Z,98370.00
2023-05-12T09:48:47.780Z,98370.00
2023-05-12T09:51:18.393Z,98365.00
2023-05-12T09:53:46.467Z,98365.00
2023-05-12T09:56:13.852Z,98368.00
2023-05-12T09:58:44.708Z,98369.00
2023-05-12T10:01:22.917Z,98366.00
2023-05-12T10:03:56.729Z,98367.00
2023-05-12T10:06:28.516Z,98367.00
2023-05-12T10:09:16.120Z,98377.00
2023-05-12T10:11:43.148Z,98375.00
2023-05-12T10:14:11.179Z,98375.00
2023-05-12T10:16:38.738Z,98371.00
2023-05-12T10:19:06.134Z,98368.00
2023-05-12T10:21:35.825Z,98371.00
2023-05-12T10:24:03.926Z,98371.00
2023-05-12T10:26:32.938Z,98376.00
2023-05-12T10:29:00.021Z,98369.00
2023-05-12T10:31:27.964Z,98376.00
2023-05-12T10:34:02.344Z,98379.00
2023-05-12T10:36:29.084Z,98373.00
2023-05-12T10:38:56.150Z,98374.00
2023-05-12T10:41:31.083Z,98376.00
2023-05-12T10:43:57.776Z,98370.00
2023-05-12T10:46:26.433Z,98368.00
2023-05-12T10:48:57.840Z,98373.00
2023-05-12T10:51:33.153Z,98370.00
2023-05-12T10:54:02.291Z,98376.00
2023-05-12T10:56:31.727Z,98373.00
2023-05-12T10:59:37.820Z,98374.00
2023-05-12T11:02:12.585Z,98378.00
2023-05-12T11:04:43.625Z,98383.00
2023-05-12T11:07:14.084Z,98380.00
2023-05-12T11:09:53.732Z,98377.00
2023-05-12T11:12:27.199Z,98374.00
2023-05-12T11:14:53.897Z,98379.00
2023-05-12T11:17:20.499Z,98379.00
2023-05-12T11:19:48.573Z,98379.00
2023-05-12T11:22:19.694Z,98378.00
2023-05-12T11:24:46.397Z,98382.00
2023-05-12T11:27:19.158Z,98378.00
2023-05-12T11:29:56.268Z,98379.00
2023-05-12T11:32:22.807Z,98385.00
2023-05-12T11:34:49.301Z,98391.00
2023-05-12T11:37:15.863Z,98384.00
2023-05-12T11:39:42.414Z,98382.00
2023-05-12T11:42:13.259Z,98391.00
2023-05-12T11:44:48.412Z,98392.00
2023-05-12T11:47:16.716Z,98394.00
2023-05-12T11:49:51.554Z,98391.00
2023-05-12T11:52:19.822Z,98396.00
2023-05-12T11:54:53.356Z,98395.00
2023-05-12T11:57:31.803Z,98395.00
2023-05-12T12:00:03.817Z,98391.00
2023-05-12T12:02:33.450Z,98404.00
2023-05-12T12:05:00.020Z,98404.00
2023-05-12T12:07:34.901Z,98402.00
2023-05-12T12:10:18.558Z,98409.00
2023-05-12T12:12:46.052Z,98403.00
2023-05-12T12:15:13.062Z,98397.00
2023-05-12T12:17:40.580Z,98401.00
2023-05-12T12:20:08.934Z,98407.00
2023-05-12T12:22:35.600Z,98402.00
2023-05-12T12:25:03.458Z,98412.00
2023-05-12T12:27:30.063Z,98410.00
2023-05-12T12:29:56.568Z,98421.00
2023-05-12T12:32:23.161Z,98416.00
2023-05-12T12:34:49.701Z,98421.00
2023-05-12T12:37:17.209Z,98422.00
2023-05-12T12:39:43.828Z,98428.00
2023-05-12T12:42:10.269Z,98421.00
2023-05-12T12:44:36.726Z,98421.00
2023-05-12T12:47:03.626Z,98417.00
2023-05-12T12:49:30.178Z,98414.00
2023-05-12T12:51:56.665Z,98419.00
2023-05-12T12:54:26.914Z,98421.00
2023-05-12T12:56:53.534Z,98422.00
2023-05-12T12:59:20.001Z,98419.00
2023-05-12T13:01:46.603Z,98420.00
2023-05-12T13:04:13.216Z,98419.00
2023-05-12T13:06:39.902Z,98411.00
2023-05-12T13:09:06.655Z,98412.00
2023-05-12T13:11:33.290Z,98415.00
2023-05-12T13:14:02.193Z,98420.00
2023-05-12T13:16:30.018Z,98415.00
2023-05-12T13:18:56.666Z,98421.00
2023-05-12T13:21:23.360Z,98426.00
2023-05-12T13:23:49.886Z,98423.00
2023-05-12T13:26:16.313Z,98427.00
2023-05-12T13:28:43.201Z,98413.00
2023-05-12T13:31:09.765Z,98423.00
2023-05-12T13:33:36.550Z,98413.00
2023-05-12T13:36:03.292Z,98422.00
2023-05-12T13:38:30.816Z,98423.00
2023-05-12T13:40:57.598Z,98420.00
2023-05-12T13:43:24.144Z,98417.00
2023-05-12T13:45:50.967Z,98419.00
2023-05-12T13:48:17.597Z,98426.00
2023-05-12T13:50:44.138Z,98420.00
2023-05-12T13:53:12.537Z,98432.00
2023-05-12T13:55:40.861Z,98420.00
2023-05-12T13:58:09.197Z,98425.00
2023-05-12T14:00:35.875Z,98423.00
2023-05-12T14:03:02.537Z,98417.00
2023-05-12T14:05:29.192Z,98429.00
2023-05-12T14:07:55.737Z,98423.00
2023-05-12T14:10:22.329Z,98430.00
2023-05-12T14:12:48.888Z,98432.00
2023-05-12T14:15:28.906Z,98430.00
2023-05-12T14:17:59.777Z,98444.00
2023-05-12T14:20:26.311Z,98443.00
2023-05-12T14:22:52.813Z,98440.00
2023-05-12T14:25:19.670Z,98446.00
2023-05-12T14:27:46.413Z,98447.00
2023-05-12T14:30:13.538Z,98445.00
2023-05-12T14:32:40.096Z,98452.00
2023-05-12T14:35:08.345Z,98443.00
2023-05-12T14:37:35.172Z,98437.00
2023-05-12T14:40:02.149Z,98449.00
2023-05-12T14:42:30.156Z,98445.00
2023-05-12T14:44:57.071Z,98447.00
2023-05-12T14:47:24.130Z,98457.00
2023-05-12T14:49:50.698Z,98454.00
2023-05-12T14:52:17.203Z,98451.00
2023-05-12T14:54:44.294Z,98451.00
2023-05-12T14:57:10.974Z,98451.00
2023-05-12T14:59:38.600Z,98451.00
2023-05-12T15:02:05.630Z,98453.00
2023-05-12T15:04:32.191Z,98451.00
2023-05-12T15:06:58.687Z,98455.00
2023-05-12T15:09:25.184Z,98457.00
2023-05-12T15:11:51.921Z,98454.00
2023-05-12T15:14:18.398Z,98457.00
2023-05-12T15:16:44.935Z,98460.00
2023-05-12T15:19:11.552Z,98460.00
2023-05-12T15:21:38.116Z,98460.00
2023-05-12T15:24:04.801Z,98462.00
2023-05-12T15:26:33.784Z,98453.00
2023-05-12T15:29:01.997Z,98463.00
2023-05-12T15:31:29.615Z,98456.00
2023-05-12T15:33:57.249Z,98459.00
2023-05-12T15:36:24.682Z,98461.00
2023-05-12T15:38:51.136Z,98456.00
2023-05-12T15:41:17.696Z,98454.00
2023-05-12T15:43:44.254Z,98459.00
2023-05-12T15:46:11.657Z,98454.00
2023-05-12T15:48:39.190Z,98461.00
2023-05-12T15:51:05.962Z,98447.00
2023-05-12T15:53:32.589Z,98450.00
2023-05-12T15:56:03.396Z,98447.00
2023-05-12T15:58:33.598Z,98447.00
2023-05-12T16:01:03.505Z,98456.00
2023-05-12T16:03:30.118Z,98456.00
2023-05-12T16:05:56.756Z,98450.00
2023-05-12T16:08:24.051Z,98452.00
2023-05-12T16:10:51.178Z,98448.00
2023-05-12T16:13:17.659Z,98456.00
2023-05-12T16:15:44.184Z,98451.00
2023-05-12T16:18:11.622Z,98449.00
2023-05-12T16:20:38.810Z,98451.00
2023-05-12T16:23:05.361Z,98459.00
2023-05-12T16:25:31.867Z,98458.00
2023-05-12T16:27:58.386Z,98459.00
2023-05-12T16:30:25.148Z,98453.00
2023-05-12T16:32:51.777Z,98451.00
2023-05-12T16:35:18.493Z,98456.00
2023-05-12T16:37:45.119Z,98461.00
2023-05-12T16:40:12.181Z,98457.00
2023-05-12T16:42:38.829Z,98453.00
2023-05-12T16:45:06.335Z,98450.00
2023-05-12T16:47:32.803Z,98455.00
2023-05-12T16:49:59.812Z,98453.00
2023-05-12T16:52:26.783Z,98453.00
2023-05-12T16:54:55.031Z,98454.00
2023-05-12T16:57:21.555Z,98462.00
2023-05-12T16:59:48.515Z,98467.00
2023-05-12T17:02:15.615Z,98467.00
2023-05-12T17:04:42.263Z,98471.00
2023-05-12T17:07:09.538Z,98471.00
2023-05-12T17:09:36.836Z,98474.00
2023-05-12T17:12:04.377Z,98471.00
2023-05-12T17:14:30.988Z,98469.00
2023-05-12T17:16:57.563Z,98475.00
2023-05-12T17:19:24.061Z,98477.00
2023-05-12T17:21:50.576Z,98475.00
2023-05-12T17:24:17.459Z,98473.00
2023-05-12T17:26:44.083Z,98475.00
2023-05-12T17:29:10.596Z,98478.00
2023-05-12T17:31:37.864Z,98475.00
2023-05-12T17:34:04.447Z,98479.00
2023-05-12T17:36:31.077Z,98474.00
2023-05-12T17:38:57.627Z,98470.00
2023-05-12T17:41:24.125Z,98452.00
2023-05-12T17:43:50.639Z,98445.00
2023-05-12T17:46:17.264Z,98458.00
2023-05-12T17:48:43.759Z,98451.00
2023-05-12T17:51:10.276Z,98469.00
2023-05-12T17:53:36.922Z,98480.00
2023-05-12T17:56:03.676Z,98485.00
2023-05-12T17:58:30.287Z,98491.00
2023-05-12T18:00:57.129Z,98488.00
2023-05-12T18:03:24.113Z,98492.00
2023-05-12T18:05:52.017Z,98496.00
2023-05-12T18:08:18.743Z,98489.00
2023-05-12T18:10:45.856Z,98494.00
2023-05-12T18:13:14.515Z,98501.00
2023-05-12T18:15:41.872Z,98501.00
2023-05-12T18:18:08.953Z,98496.00
2023-05-12T18:20:35.592Z,98507.00
2023-05-12T18:23:02.098Z,98502.00
2023-05-12T18:25:28.598Z,98508.00
2023-05-12T18:27:55.072Z,98504.00
2023-05-12T18:30:21.570Z,98507.00
2023-05-12T18:32:48.152Z,98506.00
2023-05-12T18:35:14.798Z,98511.00
2023-05-12T18:37:44.525Z,98511.00
2023-05-12T18:40:12.082Z,98510.00
2023-05-12T18:42:39.940Z,98517.00
2023-05-12T18:45:07.173Z,98517.00
2023-05-12T18:47:34.241Z,98527.00
2023-05-12T18:50:00.724Z,98517.00
2023-05-12T18:52:27.295Z,98518.00
2023-05-12T18:54:53.985Z,98534.00
2023-05-12T18:57:20.875Z,98536.00
2023-05-12T18:59:47.435Z,98536.00
2023-05-12T19:02:13.950Z,98536.00
2023-05-12T19:04:40.529Z,98537.00
2023-05-12T19:07:09.647Z,98549.00
2023-05-12T19:09:36.953Z,98539.00
2023-05-12T19:12:05.758Z,98552.00
2023-05-12T19:14:32.656Z,98553.00
2023-05-12T19:16:59.373Z,98556.00
2023-05-12T19:19:25.883Z,98549.00
2023-05-12T19:21:52.742Z,98552.00
2023-05-12T19:24:19.504Z,98565.00
2023-05-12T19:26:46.461Z,98571.00
2023-05-12T19:29:13.279Z,98574.00
2023-05-12T19:31:40.100Z,98578.00
2023-05-12T19:34:07.124Z,98581.00
2023-05-12T19:36:34.239Z,98584.00
2023-05-12T19:39:01.105Z,98579.00
2023-05-12T19:41:29.660Z,98583.00
2023-05-12T19:43:56.498Z,98582.00
2023-05-12T19:46:23.235Z,98585.00
2023-05-12T19:48:51.213Z,98591.00
2023-05-12T19:51:17.888Z,98585.00
2023-05-12T19:53:44.571Z,98594.00
2023-05-12T19:56:11.214Z,98601.00
2023-05-12T19:58:38.488Z,98600.00
2023-05-12T20:01:05.230Z,98596.00
2023-05-12T20:03:31.916Z,98603.00
2023-05-12T20:05:58.889Z,98600.00
2023-05-12T20:08:25.690Z,98595.00
2023-05-12T20:10:52.275Z,98603.00
2023-05-12T20:13:18.820Z,98609.00
2023-05-12T20:15:45.644Z,98610.00
2023-05-12T20:18:15.573Z,98617.00
2023-05-12T20:20:42.960Z,98611.00
2023-05-12T20:23:09.563Z,98618.00
2023-05-12T20:25:36.639Z,98623.00
2023-05-12T20:28:03.251Z,98623.00
2023-05-12T20:30:29.819Z,98613.00
2023-05-12T20:32:56.423Z,98619.00
2023-05-12T20:35:23.439Z,98621.00
2023-05-12T20:37:50.587Z,98624.00
2023-05-12T20:40:17.208Z,98633.00
2023-05-12T20:42:48.932Z,98626.00
2023-05-12T20:45:16.268Z,98624.00
2023-05-12T20:47:42.833Z,98629.00
2023-05-12T20:50:09.935Z,98623.00
2023-05-12T20:52:37.446Z,98628.00
2023-05-12T20:55:04.293Z,98627.00
2023-05-12T20:57:30.858Z,98634.00
2023-05-12T20:59:57.322Z,98633.00
2023-05-12T21:02:25.367Z,98642.00
2023-05-12T21:04:52.247Z,98643.00
2023-05-12T21:07:19.726Z,98642.00
2023-05-12T21:09:47.029Z,98641.00
2023-05-12T21:12:13.508Z,98647.00
2023-05-12T21:14:41.385Z,98649.00
2023-05-12T21:17:08.824Z,98655.00
2023-05-12T21:19:36.035Z,98648.00
2023-05-12T21:22:04.204Z,98649.00
2023-05-12T21:24:31.187Z,98641.00
2023-05-12T21:26:58.476Z,98649.00
2023-05-12T21:29:25.008Z,98650.00
2023-05-12T21:31:52.188Z,98655.00
2023-05-12T21:34:18.748Z,98657.00
2023-05-12T21:36:45.320Z,98654.00
2023-05-12T21:39:12.035Z,98654.00
2023-05-12T21:41:39.598Z,98655.00
2023-05-12T21:44:06.469Z,98652.00
2023-05-12T21:46:33.408Z,98659.00
2023-05-12T21:49:00.146Z,98660.00
2023-05-12T21:51:27.017Z,98652.00
2023-05-12T21:53:56.378Z,98658.00
2023-05-12T21:56:23.028Z,98651.00
2023-05-12T21:58:50.509Z,98663.00
2023-05-12T22:01:18.296Z,98656.00
2023-05-12T22:03:45.332Z,98657.00
2023-05-12T22:06:12.027Z,98658.00
2023-05-12T22:08:38.588Z,98656.00
2023-05-12T22:11:05.087Z,98660.00
2023-05-12T22:13:31.512Z,98666.00
2023-05-12T22:15:58.350Z,98660.00
2023-05-12T22:18:24.890Z,98668.00
2023-05-12T22:20:51.432Z,98668.00
2023-05-12T22:23:17.905Z,98660.00
2023-05-12T22:25:44.368Z,98666.00
2023-05-12T22:28:11.035Z,98669.00
2023-05-12T22:30:37.489Z,98672.00
2023-05-12T22:33:04.032Z,98670.00
2023-05-12T22:35:30.547Z,98672.00
2023-05-12T22:37:57.066Z,98667.00
2023-05-12T22:40:23.575Z,98673.00
2023-05-12T22:42:50.090Z,98676.00
2023-05-12T22:45:16.527Z,98669.00
2023-05-12T22:47:43.120Z,98677.00
2023-05-12T22:50:10.407Z,98670.00
2023-05-12T22:52:36.905Z,98663.00
2023-05-12T22:55:03.477Z,98671.00
2023-05-12T22:57:29.981Z,98668.00
2023-05-12T22:59:56.489Z,98675.00
2023-05-12T23:02:22.995Z,98670.00
2023-05-12T23:04:49.473Z,98665.00
2023-05-12T23:07:15.961Z,98667.00
2023-05-12T23:09:42.401Z,98669.00
2023-05-12T23:12:09.134Z,98665.00
2023-05-12T23:14:35.642Z,98665.00
2023-05-12T23:17:02.282Z,98669.00
2023-05-12T23:19:28.815Z,98667.00
2023-05-12T23:21:55.409Z,98662.00
2023-05-12T23:24:21.973Z,98657.00
2023-05-12T23:26:49.344Z,98661.00
2023-05-12T23:29:15.987Z,98670.00
2023-05-12T23:31:42.545Z,98661.00
2023-05-12T23:34:09.129Z,98659.00
2023-05-12T23:36:35.791Z,98654.00
2023-05-12T23:39:02.435Z,98652.00
2023-05-12T23:41:31.631Z,98650.00
2023-05-12T23:43:58.500Z,98657.00
2023-05-12T23:46:25.753Z,98661.00
2023-05-12T23:48:52.287Z,98660.00
2023-05-12T23:51:18.800Z,98657.00
2023-05-12T23:53:45.232Z,98647.00
2023-05-12T23:56:11.669Z,98650.00
2023-05-12T23:58:38.182Z,98648.00
